createdAt,value
2022-08-28T00:02:25.223Z,101064.88
2022-08-28T00:04:51.854Z,101055.94
2022-08-28T00:07:19.336Z,101085.97
2022-08-28T00:09:45.906Z,101058.53
2022-08-28T00:12:12.520Z,101090.47
2022-08-28T00:14:39.455Z,101084.72
2022-08-28T00:17:06.230Z,101090.03
2022-08-28T00:19:38.505Z,101077.72
2022-08-28T00:22:06.225Z,101042.88
2022-08-28T00:24:33.140Z,101073.53
2022-08-28T00:27:28.910Z,100963.03
2022-08-28T00:29:55.505Z,101089.31
2022-08-28T00:32:25.255Z,101077.06
2022-08-28T00:34:52.092Z,101099.88
2022-08-28T00:37:18.712Z,101077.66
2022-08-28T00:39:45.244Z,101092.06
2022-08-28T00:42:11.947Z,101086.69
2022-08-28T00:44:38.434Z,101090.13
2022-08-28T00:47:05.071Z,101082.47
2022-08-28T00:49:36.090Z,101096.50
2022-08-28T00:52:11.806Z,101102.72
2022-08-28T00:54:44.179Z,100996.75
2022-08-28T00:57:32.006Z,101098.19
2022-08-28T00:59:58.830Z,100987.91
2022-08-28T01:02:26.594Z,101092.94
2022-08-28T01:04:53.805Z,101063.13
2022-08-28T01:07:23.235Z,100969.31
2022-08-28T01:09:54.058Z,100982.44
2022-08-28T01:12:28.902Z,101100.34
2022-08-28T01:15:00.023Z,101117.00
2022-08-28T01:17:31.284Z,101118.88
2022-08-28T01:20:03.770Z,101118.25
2022-08-28T01:22:43.179Z,101127.78
2022-08-28T01:25:13.963Z,101123.50
2022-08-28T01:27:44.387Z,101132.53
2022-08-28T01:30:14.055Z,101128.47
2022-08-28T01:32:47.440Z,101097.28
2022-08-28T01:35:21.182Z,101102.53
2022-08-28T01:37:48.238Z,101118.00
2022-08-28T01:40:23.764Z,101131.69
2022-08-28T01:42:50.302Z,101102.72
2022-08-28T01:45:20.446Z,101116.66
2022-08-28T01:47:47.561Z,101126.97
2022-08-28T01:50:20.383Z,101124.19
2022-08-28T01:52:47.102Z,101121.75
2022-08-28T01:55:14.072Z,101140.06
2022-08-28T01:57:45.948Z,101103.88
2022-08-28T02:00:14.375Z,101141.47
2022-08-28T02:02:40.897Z,101127.56
2022-08-28T02:05:08.701Z,101113.50
2022-08-28T02:07:35.424Z,101132.91
2022-08-28T02:10:02.784Z,101141.28
2022-08-28T02:12:29.983Z,101124.19
2022-08-28T02:14:56.432Z,101047.63
2022-08-28T02:17:22.840Z,101013.13
2022-08-28T02:19:49.302Z,101117.97
2022-08-28T02:22:15.743Z,101125.06
2022-08-28T02:24:42.278Z,101054.06
2022-08-28T02:27:09.104Z,101144.66
2022-08-28T02:29:35.524Z,101093.56
2022-08-28T02:32:02.115Z,101124.53
2022-08-28T02:34:28.567Z,101163.56
2022-08-28T02:36:56.152Z,101127.97
2022-08-28T02:39:22.650Z,101141.09
2022-08-28T02:41:49.196Z,101152.81
2022-08-28T02:44:16.725Z,101136.16
2022-08-28T02:46:43.692Z,101176.69
2022-08-28T02:49:10.147Z,101077.34
2022-08-28T02:51:36.598Z,101148.03
2022-08-28T02:54:03.421Z,101151.25
2022-08-28T02:56:30.944Z,101142.81
2022-08-28T02:58:58.284Z,101174.09
2022-08-28T03:01:24.808Z,101066.94
2022-08-28T03:03:51.368Z,101134.06
2022-08-28T03:06:17.799Z,101141.09
2022-08-28T03:08:45.138Z,101135.38
2022-08-28T03:11:12.176Z,101113.72
2022-08-28T03:13:38.873Z,101151.41
2022-08-28T03:16:05.499Z,101136.88
2022-08-28T03:18:33.184Z,101028.31
2022-08-28T03:21:00.407Z,101182.16
2022-08-28T03:23:27.215Z,101153.25
2022-08-28T03:26:09.718Z,101181.09
2022-08-28T03:28:43.179Z,101150.41
2022-08-28T03:31:13.763Z,101160.88
2022-08-28T03:33:42.547Z,101157.94
2022-08-28T03:36:11.552Z,101180.56
2022-08-28T03:38:38.184Z,101152.38
2022-08-28T03:41:10.596Z,101180.31
2022-08-28T03:43:37.095Z,101171.16
2022-08-28T03:46:05.890Z,101158.09
2022-08-28T03:48:36.284Z,101157.22
2022-08-28T03:51:08.016Z,101182.50
2022-08-28T03:53:34.496Z,101052.63
2022-08-28T03:56:13.664Z,101171.44
2022-08-28T03:58:41.343Z,101168.09
2022-08-28T04:01:08.535Z,101164.53
2022-08-28T04:03:35.455Z,101169.97
2022-08-28T04:06:02.548Z,101178.72
2022-08-28T04:08:29.488Z,101158.53
2022-08-28T04:10:56.794Z,101198.41
2022-08-28T04:13:23.285Z,101179.81
2022-08-28T04:16:05.015Z,101215.44
2022-08-28T04:18:33.508Z,101207.84
2022-08-28T04:21:07.846Z,101164.47
2022-08-28T04:23:35.072Z,101212.63
2022-08-28T04:26:03.863Z,101186.34
2022-08-28T04:28:32.321Z,101187.13
2022-08-28T04:30:59.563Z,101200.09
2022-08-28T04:33:27.300Z,101184.78
2022-08-28T04:35:54.357Z,101212.69
2022-08-28T04:38:21.403Z,101133.63
2022-08-28T04:40:48.272Z,101206.09
2022-08-28T04:43:14.777Z,101083.88
2022-08-28T04:45:43.329Z,101226.44
2022-08-28T04:48:13.238Z,101145.81
2022-08-28T04:50:44.076Z,101198.50
2022-08-28T04:53:10.919Z,101142.38
2022-08-28T04:55:54.976Z,101233.47
2022-08-28T04:58:23.649Z,101171.97
2022-08-28T05:00:52.336Z,101208.81
2022-08-28T05:03:18.829Z,101124.22
2022-08-28T05:05:48.294Z,101240.84
2022-08-28T05:08:16.413Z,101238.78
2022-08-28T05:10:43.340Z,101195.75
2022-08-28T05:13:11.335Z,101161.22
2022-08-28T05:15:43.491Z,101221.59
2022-08-28T05:18:13.555Z,101073.69
2022-08-28T05:20:45.784Z,101228.75
2022-08-28T05:23:13.310Z,101220.13
2022-08-28T05:25:42.770Z,101185.56
2022-08-28T05:28:12.169Z,101104.53
2022-08-28T05:30:41.467Z,101160.63
2022-08-28T05:33:09.881Z,101238.00
2022-08-28T05:35:42.835Z,101249.28
2022-08-28T05:38:11.284Z,101256.53
2022-08-28T05:40:43.502Z,101216.69
2022-08-28T05:43:11.447Z,101208.09
2022-08-28T05:45:38.172Z,101249.56
2022-08-28T05:48:05.356Z,101238.56
2022-08-28T05:50:32.061Z,101222.13
2022-08-28T05:52:58.506Z,101244.53
2022-08-28T05:55:24.946Z,101259.28
2022-08-28T05:57:51.530Z,101239.34
2022-08-28T06:00:18.346Z,101150.38
2022-08-28T06:02:44.888Z,101218.84
2022-08-28T06:05:12.896Z,101256.28
2022-08-28T06:07:40.943Z,101235.63
2022-08-28T06:10:07.806Z,101239.97
2022-08-28T06:12:37.531Z,101272.31
2022-08-28T06:15:04.632Z,101186.88
2022-08-28T06:17:31.114Z,101283.44
2022-08-28T06:19:57.520Z,101188.59
2022-08-28T06:22:24.073Z,101263.63
2022-08-28T06:24:50.547Z,101231.44
2022-08-28T06:27:17.060Z,101202.81
2022-08-28T06:29:44.636Z,101128.53
2022-08-28T06:32:11.151Z,101235.44
2022-08-28T06:34:37.619Z,101281.16
2022-08-28T06:37:04.137Z,101211.50
2022-08-28T06:39:30.655Z,101243.16
2022-08-28T06:41:57.133Z,101180.16
2022-08-28T06:44:23.897Z,101260.16
2022-08-28T06:46:53.617Z,101305.69
2022-08-28T06:49:20.541Z,101242.75
2022-08-28T06:51:47.090Z,101265.75
2022-08-28T06:54:19.671Z,101225.16
2022-08-28T06:56:49.084Z,101194.38
2022-08-28T06:59:15.553Z,101149.34
2022-08-28T07:01:42.043Z,101249.72
2022-08-28T07:04:11.125Z,101241.59
2022-08-28T07:06:40.855Z,101308.53
2022-08-28T07:09:11.039Z,101313.09
2022-08-28T07:11:38.675Z,101268.88
2022-08-28T07:14:06.317Z,101315.41
2022-08-28T07:16:38.008Z,101322.59
2022-08-28T07:19:10.039Z,101327.97
2022-08-28T07:21:39.450Z,101328.91
2022-08-28T07:24:07.341Z,101331.72
2022-08-28T07:26:35.698Z,101292.22
2022-08-28T07:29:10.377Z,101323.59
2022-08-28T07:31:40.805Z,101325.31
2022-08-28T07:34:07.845Z,101334.69
2022-08-28T07:36:34.915Z,101320.91
2022-08-28T07:39:01.400Z,101335.84
2022-08-28T07:41:30.871Z,101302.25
2022-08-28T07:44:15.785Z,101337.94
2022-08-28T07:46:43.355Z,101309.44
2022-08-28T07:49:11.065Z,101341.16
2022-08-28T07:51:37.540Z,101302.81
2022-08-28T07:54:05.091Z,101329.34
2022-08-28T07:56:32.107Z,101331.69
2022-08-28T07:59:00.420Z,101331.53
2022-08-28T08:01:28.936Z,101336.06
2022-08-28T08:04:01.304Z,101315.97
2022-08-28T08:06:34.242Z,101306.19
2022-08-28T08:09:04.995Z,101340.47
2022-08-28T08:11:32.451Z,101305.44
2022-08-28T08:14:04.698Z,101313.19
2022-08-28T08:16:34.729Z,101327.47
2022-08-28T08:19:02.047Z,101338.91
2022-08-28T08:21:30.493Z,101316.84
2022-08-28T08:23:58.008Z,101351.56
2022-08-28T08:26:27.929Z,101335.09
2022-08-28T08:28:54.865Z,101347.81
2022-08-28T08:31:27.270Z,101334.16
2022-08-28T08:33:57.917Z,101322.09
2022-08-28T08:36:26.463Z,101301.00
2022-08-28T08:38:59.593Z,101340.03
2022-08-28T08:41:51.791Z,101340.19
2022-08-28T08:44:34.045Z,101324.38
2022-08-28T08:47:20.034Z,101340.13
2022-08-28T08:49:52.317Z,101297.41
2022-08-28T08:52:24.776Z,101341.66
2022-08-28T08:55:35.417Z,101315.72
2022-08-28T08:58:25.938Z,101191.34
2022-08-28T09:01:00.545Z,101268.19
2022-08-28T09:03:44.440Z,101300.66
2022-08-28T09:06:29.669Z,101337.59
2022-08-28T09:09:04.643Z,101324.28
2022-08-28T09:11:45.217Z,101327.56
2022-08-28T09:14:33.610Z,101227.63
2022-08-28T09:17:05.030Z,101250.44
2022-08-28T09:19:31.533Z,101230.13
2022-08-28T09:21:58.680Z,101324.66
2022-08-28T09:24:52.449Z,101343.28
2022-08-28T09:27:26.459Z,101346.19
2022-08-28T09:30:08.050Z,101295.44
2022-08-28T09:32:44.350Z,101343.75
2022-08-28T09:35:29.875Z,101333.72
2022-08-28T09:38:16.435Z,101335.34
2022-08-28T09:41:01.851Z,101208.69
2022-08-28T09:43:31.405Z,101324.69
2022-08-28T09:46:05.587Z,101342.16
2022-08-28T09:48:40.722Z,101342.25
2022-08-28T09:51:27.981Z,101351.22
2022-08-28T09:53:57.362Z,101356.94
2022-08-28T09:57:29.491Z,101264.91
2022-08-28T09:59:57.113Z,101301.31
2022-08-28T10:02:39.921Z,101340.91
2022-08-28T10:05:16.277Z,101321.44
2022-08-28T10:07:55.667Z,101220.31
2022-08-28T10:10:40.000Z,101338.22
2022-08-28T10:13:52.821Z,101345.47
2022-08-28T10:16:26.199Z,101302.53
2022-08-28T10:19:13.667Z,101339.63
2022-08-28T10:21:54.849Z,101292.56
2022-08-28T10:24:40.094Z,101345.06
2022-08-28T10:27:23.429Z,101312.00
2022-08-28T10:30:08.926Z,101347.38
2022-08-28T10:32:40.775Z,101335.50
2022-08-28T10:35:29.208Z,101352.59
2022-08-28T10:38:23.755Z,101326.91
2022-08-28T10:41:15.116Z,101354.63
2022-08-28T10:47:29.437Z,101261.16
2022-08-28T10:50:02.648Z,101323.13
2022-08-28T10:52:57.551Z,101244.81
2022-08-28T10:55:34.577Z,101311.09
2022-08-28T10:58:25.144Z,101208.66
2022-08-28T11:00:58.884Z,101286.00
2022-08-28T11:03:35.734Z,101345.19
2022-08-28T11:06:32.085Z,101334.00
2022-08-28T11:09:25.531Z,101339.72
2022-08-28T11:12:01.840Z,101345.41
2022-08-28T11:14:35.591Z,101261.69
2022-08-28T11:17:30.321Z,101342.75
2022-08-28T11:20:15.275Z,101338.75
2022-08-28T11:22:43.766Z,101271.69
2022-08-28T11:25:26.587Z,101336.16
2022-08-28T11:28:24.694Z,101340.38
2022-08-28T11:31:06.402Z,101342.47
2022-08-28T11:33:40.696Z,101347.97
2022-08-28T11:36:19.356Z,101336.59
2022-08-28T11:38:45.727Z,101344.69
2022-08-28T11:41:27.353Z,101340.16
2022-08-28T11:44:09.188Z,101336.13
2022-08-28T11:47:00.227Z,101333.22
2022-08-28T11:49:26.746Z,101337.94
2022-08-28T11:52:08.101Z,101330.47
2022-08-28T11:54:45.235Z,101341.72
2022-08-28T11:57:19.467Z,101305.34
2022-08-28T12:00:02.546Z,101340.69
2022-08-28T12:02:39.738Z,101282.28
2022-08-28T12:05:08.511Z,101328.94
2022-08-28T12:07:38.922Z,101245.31
2022-08-28T12:10:20.733Z,101325.91
2022-08-28T12:12:47.245Z,101331.22
2022-08-28T12:15:43.485Z,101327.13
2022-08-28T12:18:12.887Z,101330.69
2022-08-28T12:20:51.944Z,101308.25
2022-08-28T12:23:45.118Z,101335.00
2022-08-28T12:26:26.028Z,101295.84
2022-08-28T12:29:00.234Z,101329.41
2022-08-28T12:32:12.828Z,101327.97
2022-08-28T12:34:42.411Z,101305.97
2022-08-28T12:37:51.572Z,101316.66
2022-08-28T12:40:19.681Z,101308.31
2022-08-28T12:42:54.894Z,101298.66
2022-08-28T12:45:45.191Z,101265.16
2022-08-28T12:48:26.783Z,101310.66
2022-08-28T12:51:03.288Z,101294.13
2022-08-28T12:53:44.920Z,101272.66
2022-08-28T12:56:14.285Z,101262.72
2022-08-28T12:58:42.176Z,101222.69
2022-08-28T13:01:32.314Z,101309.81
2022-08-28T13:04:03.048Z,101268.75
2022-08-28T13:06:35.871Z,101308.06
2022-08-28T13:09:06.753Z,101282.66
2022-08-28T13:11:40.365Z,101269.38
2022-08-28T13:14:08.421Z,101215.09
2022-08-28T13:16:45.417Z,101298.91
2022-08-28T13:19:26.217Z,101297.31
2022-08-28T13:22:01.955Z,101294.53
2022-08-28T13:24:38.744Z,101263.50
2022-08-28T13:27:14.281Z,101298.47
2022-08-28T13:29:55.645Z,101296.75
2022-08-28T13:32:27.629Z,101289.66
2022-08-28T13:35:27.853Z,101293.31
2022-08-28T13:37:57.355Z,101298.22
2022-08-28T13:40:56.198Z,101272.50
2022-08-28T13:43:16.362Z,101265.41
2022-08-28T13:45:46.000Z,101285.03
2022-08-28T13:48:14.321Z,101282.81
2022-08-28T13:50:44.841Z,101232.88
2022-08-28T13:53:18.305Z,101235.44
2022-08-28T13:55:45.554Z,101270.19
2022-08-28T13:58:13.791Z,101265.22
2022-08-28T14:00:44.166Z,101208.19
2022-08-28T14:03:29.347Z,101172.91
2022-08-28T14:05:56.116Z,101265.59
2022-08-28T14:08:22.665Z,101194.44
2022-08-28T14:10:49.229Z,101263.06
2022-08-28T14:13:15.936Z,101262.72
2022-08-28T14:15:43.781Z,101248.50
2022-08-28T14:18:10.293Z,101212.84
2022-08-28T14:20:38.121Z,101134.06
2022-08-28T14:23:04.694Z,101184.31
2022-08-28T14:25:33.749Z,101230.06
2022-08-28T14:28:02.591Z,101148.75
2022-08-28T14:30:29.705Z,101247.06
2022-08-28T14:32:56.157Z,101237.63
2022-08-28T14:35:22.582Z,101236.38
2022-08-28T14:37:49.054Z,101248.03
2022-08-28T14:40:16.177Z,101220.25
2022-08-28T14:42:42.673Z,101193.50
2022-08-28T14:45:09.595Z,101239.16
2022-08-28T14:47:36.665Z,101218.03
2022-08-28T14:50:03.403Z,101204.00
2022-08-28T14:52:29.900Z,101240.50
2022-08-28T14:54:56.296Z,101245.41
2022-08-28T15:01:21.315Z,101249.09
2022-08-28T15:07:00.539Z,101242.91
2022-08-28T15:09:28.162Z,101233.31
2022-08-28T15:11:54.786Z,101178.66
2022-08-28T15:14:21.255Z,101212.28
2022-08-28T15:16:48.419Z,101247.97
2022-08-28T15:19:17.770Z,101145.97
2022-08-28T15:21:48.191Z,101241.47
2022-08-28T15:24:15.993Z,101187.19
2022-08-28T15:26:43.202Z,101240.41
2022-08-28T15:29:11.823Z,101168.56
2022-08-28T15:31:42.412Z,101227.41
2022-08-28T15:34:13.758Z,101098.47
2022-08-28T15:36:41.569Z,101110.94
2022-08-28T15:39:28.127Z,101231.13
2022-08-28T15:41:55.374Z,101204.19
2022-08-28T15:44:22.388Z,101241.41
2022-08-28T15:46:55.527Z,101124.78
2022-08-28T15:49:23.874Z,101163.78
2022-08-28T15:51:50.891Z,101138.28
2022-08-28T15:54:17.659Z,101236.50
2022-08-28T15:56:44.139Z,101177.06
2022-08-28T15:59:17.651Z,101237.88
2022-08-28T16:01:45.259Z,101237.88
2022-08-28T16:04:12.315Z,101235.53
2022-08-28T16:06:39.108Z,101143.03
2022-08-28T16:09:06.977Z,101170.72
2022-08-28T16:11:33.977Z,101208.16
2022-08-28T16:14:05.366Z,101157.06
2022-08-28T16:16:32.616Z,101067.75
2022-08-28T16:18:59.315Z,101052.06
2022-08-28T16:21:26.875Z,101051.34
2022-08-28T16:23:55.265Z,101034.28
2022-08-28T16:26:25.582Z,101229.69
2022-08-28T16:28:52.292Z,101122.13
2022-08-28T16:31:19.839Z,101032.22
2022-08-28T16:33:48.325Z,101140.66
2022-08-28T16:36:16.120Z,101221.88
2022-08-28T16:38:46.116Z,101115.78
2022-08-28T16:41:19.336Z,101189.47
2022-08-28T16:43:47.032Z,101248.09
2022-08-28T16:46:17.238Z,101060.63
2022-08-28T16:48:44.598Z,101157.91
2022-08-28T16:51:12.096Z,101152.47
2022-08-28T16:53:40.622Z,101226.75
2022-08-28T16:56:09.032Z,101211.00
2022-08-28T16:58:37.776Z,101206.25
2022-08-28T17:01:05.705Z,101229.78
2022-08-28T17:03:34.525Z,101121.44
2022-08-28T17:06:08.038Z,101230.13
2022-08-28T17:08:34.435Z,101128.00
2022-08-28T17:14:39.208Z,101229.34
2022-08-28T17:17:05.888Z,101216.03
2022-08-28T17:19:32.625Z,101156.25
2022-08-28T17:22:17.770Z,101160.19
2022-08-28T17:24:46.996Z,101149.75
2022-08-28T17:27:16.709Z,101204.75
2022-08-28T17:29:49.202Z,101048.06
2022-08-28T17:32:15.943Z,101188.47
2022-08-28T17:34:42.451Z,101118.50
2022-08-28T17:37:11.281Z,101168.84
2022-08-28T17:39:37.874Z,101196.41
2022-08-28T17:42:04.437Z,101219.44
2022-08-28T17:44:31.114Z,101146.59
2022-08-28T17:46:57.711Z,101112.22
2022-08-28T17:49:24.299Z,101069.03
2022-08-28T17:51:51.200Z,101163.81
2022-08-28T17:54:21.466Z,101043.75
2022-08-28T17:56:48.513Z,101167.94
2022-08-28T17:59:15.667Z,101193.97
2022-08-28T18:01:43.281Z,101231.66
2022-08-28T18:04:10.862Z,101194.63
2022-08-28T18:06:37.797Z,101241.94
2022-08-28T18:09:05.733Z,101175.41
2022-08-28T18:11:32.344Z,101178.00
2022-08-28T18:13:59.832Z,101229.53
2022-08-28T18:16:31.225Z,101263.41
2022-08-28T18:19:02.195Z,101157.50
2022-08-28T18:21:29.325Z,101242.50
2022-08-28T18:23:56.309Z,101142.28
2022-08-28T18:26:25.914Z,101230.28
2022-08-28T18:28:52.701Z,101110.41
2022-08-28T18:31:19.412Z,101156.41
2022-08-28T18:33:46.588Z,101061.69
2022-08-28T18:36:14.926Z,101273.19
2022-08-28T18:38:42.712Z,101174.84
2022-08-28T18:41:10.198Z,101206.31
2022-08-28T18:43:37.627Z,101162.59
2022-08-28T18:46:06.960Z,101183.97
2022-08-28T18:48:33.468Z,101161.69
2022-08-28T18:51:00.185Z,101150.16
2022-08-28T18:53:31.036Z,101266.28
2022-08-28T18:56:00.297Z,101210.47
2022-08-28T18:58:29.487Z,101169.19
2022-08-28T19:00:56.748Z,101212.19
2022-08-28T19:03:23.274Z,101169.97
2022-08-28T19:05:53.408Z,101304.56
2022-08-28T19:08:20.006Z,101180.56
2022-08-28T19:10:46.613Z,101126.91
2022-08-28T19:13:13.257Z,101190.72
2022-08-28T19:15:39.975Z,101302.56
2022-08-28T19:18:07.035Z,101195.78
2022-08-28T19:20:36.865Z,101146.16
2022-08-28T19:23:03.515Z,101320.13
2022-08-28T19:25:30.707Z,101315.97
2022-08-28T19:27:59.442Z,101323.50
2022-08-28T19:30:27.901Z,101244.31
2022-08-28T19:32:54.865Z,101311.22
2022-08-28T19:35:24.318Z,101260.75
2022-08-28T19:37:52.469Z,101301.28
2022-08-28T19:40:20.554Z,101165.13
2022-08-28T19:42:49.243Z,101262.66
2022-08-28T19:45:16.018Z,101129.97
2022-08-28T19:47:42.637Z,101247.81
2022-08-28T19:50:12.006Z,101272.78
2022-08-28T19:52:39.146Z,101324.28
2022-08-28T19:55:06.841Z,101266.97
2022-08-28T19:57:35.379Z,101332.50
2022-08-28T20:00:04.342Z,101145.59
2022-08-28T20:02:30.992Z,101332.50
2022-08-28T20:04:57.493Z,101300.25
2022-08-28T20:07:24.959Z,101291.88
2022-08-28T20:09:52.127Z,101329.63
2022-08-28T20:12:18.588Z,101343.94
2022-08-28T20:14:45.594Z,101355.00
2022-08-28T20:17:12.198Z,101332.31
2022-08-28T20:19:39.040Z,101338.81
2022-08-28T20:22:05.511Z,101258.78
2022-08-28T20:24:32.161Z,101356.34
2022-08-28T20:26:58.694Z,101354.44
2022-08-28T20:29:25.207Z,101324.47
2022-08-28T20:31:52.793Z,101254.09
2022-08-28T20:34:20.208Z,101375.44
2022-08-28T20:36:47.624Z,101325.97
2022-08-28T20:39:14.818Z,101371.47
2022-08-28T20:41:42.511Z,101359.28
2022-08-28T20:44:12.646Z,101340.59
2022-08-28T20:46:41.980Z,101239.41
2022-08-28T20:49:10.839Z,101357.84
2022-08-28T20:51:52.715Z,101330.53
2022-08-28T20:54:41.597Z,101381.69
2022-08-28T20:57:10.652Z,101385.50
2022-08-28T20:59:40.507Z,101388.28
2022-08-28T21:02:10.295Z,101387.09
2022-08-28T21:04:39.090Z,101353.78
2022-08-28T21:07:06.932Z,101388.34
2022-08-28T21:09:52.675Z,101395.22
2022-08-28T21:12:20.160Z,101387.69
2022-08-28T21:14:51.384Z,101364.44
2022-08-28T21:17:28.675Z,101410.56
2022-08-28T21:19:55.647Z,101369.94
2022-08-28T21:22:22.392Z,101391.97
2022-08-28T21:24:48.917Z,101399.91
2022-08-28T21:27:15.405Z,101403.47
2022-08-28T21:29:45.041Z,101337.31
2022-08-28T21:32:11.684Z,101312.94
2022-08-28T21:34:38.180Z,101400.38
2022-08-28T21:37:04.780Z,101388.94
2022-08-28T21:39:31.306Z,101391.59
2022-08-28T21:41:57.919Z,101405.19
2022-08-28T21:44:24.949Z,101261.13
2022-08-28T21:46:51.369Z,101392.66
2022-08-28T21:49:17.834Z,101419.81
2022-08-28T21:51:44.281Z,101367.38
2022-08-28T21:54:10.846Z,101281.13
2022-08-28T21:56:37.287Z,101369.44
2022-08-28T21:59:03.896Z,101244.09
2022-08-28T22:01:30.451Z,101367.19
2022-08-28T22:03:57.099Z,101373.38
2022-08-28T22:06:24.793Z,101326.44
2022-08-28T22:08:52.328Z,101418.13
2022-08-28T22:11:23.425Z,101374.06
2022-08-28T22:13:55.505Z,101355.50
2022-08-28T22:16:22.813Z,101419.47
2022-08-28T22:18:49.271Z,101308.78
2022-08-28T22:21:45.118Z,101417.59
2022-08-28T22:24:13.220Z,101414.81
2022-08-28T22:26:40.599Z,101422.47
2022-08-28T22:29:07.895Z,101369.00
2022-08-28T22:31:35.345Z,101401.72
2022-08-28T22:34:06.036Z,101416.00
2022-08-28T22:36:33.050Z,101402.38
2022-08-28T22:38:59.604Z,101413.16
2022-08-28T22:41:26.289Z,101428.88
2022-08-28T22:43:53.450Z,101382.59
2022-08-28T22:46:20.665Z,101432.63
2022-08-28T22:48:47.499Z,101397.88
2022-08-28T22:51:18.234Z,101433.91
2022-08-28T22:53:45.156Z,101322.78
2022-08-28T22:56:12.226Z,101428.75
2022-08-28T22:58:39.648Z,101431.34
2022-08-28T23:01:09.968Z,101395.56
2022-08-28T23:03:37.441Z,101332.00
2022-08-28T23:06:04.565Z,101421.22
2022-08-28T23:08:34.061Z,101426.22
2022-08-28T23:11:00.963Z,101390.00
2022-08-28T23:13:28.080Z,101436.56
2022-08-28T23:15:54.644Z,101305.88
2022-08-28T23:18:21.260Z,101423.66
2022-08-28T23:20:50.711Z,101396.72
2022-08-28T23:23:19.086Z,101300.53
2022-08-28T23:25:45.930Z,101295.72
2022-08-28T23:28:12.823Z,101347.66
2022-08-28T23:30:41.240Z,101387.38
2022-08-28T23:33:19.737Z,101310.00
2022-08-28T23:35:50.192Z,101318.81
2022-08-28T23:38:16.980Z,101279.13
2022-08-28T23:40:44.513Z,101432.28
2022-08-28T23:43:11.679Z,101430.50
2022-08-28T23:45:42.068Z,101429.00
2022-08-28T23:48:09.124Z,101382.16
2022-08-28T23:50:35.972Z,101433.88
2022-08-28T23:53:03.767Z,101428.13
2022-08-28T23:55:30.989Z,101321.09
2022-08-28T23:58:00.036Z,101416.09
